createdAt,value
2023-01-13T00:00:38.426Z,6.55
2023-01-13T00:03:07.126Z,9.77
2023-01-13T00:05:35.958Z,10.13
2023-01-13T00:08:05.345Z,5.80
2023-01-13T00:10:33.920Z,11.80
2023-01-13T00:13:03.111Z,11.18
2023-01-13T00:15:31.478Z,12.13
2023-01-13T00:18:01.207Z,10.43
2023-01-13T00:20:29.830Z,10.70
2023-01-13T00:23:00.036Z,11.65
2023-01-13T00:25:28.557Z,12.43
2023-01-13T00:27:56.987Z,11.68
2023-01-13T00:30:25.408Z,12.25
2023-01-13T00:32:53.829Z,9.98
2023-01-13T00:35:23.597Z,18.90
2023-01-13T00:37:51.998Z,11.15
2023-01-13T00:40:20.437Z,15.57
2023-01-13T00:43:06.284Z,11.32
2023-01-13T00:45:34.640Z,17.33
2023-01-13T00:48:03.052Z,11.98
2023-01-13T00:50:32.813Z,14.68
2023-01-13T00:53:01.505Z,13.00
2023-01-13T00:55:32.838Z,8.90
2023-01-13T00:58:03.588Z,12.88
2023-01-13T01:00:32.063Z,11.35
2023-01-13T01:03:00.596Z,10.60
2023-01-13T01:05:28.984Z,10.48
2023-01-13T01:07:58.781Z,14.85
2023-01-13T01:10:27.189Z,14.05
2023-01-13T01:12:55.546Z,9.20
2023-01-13T01:15:23.932Z,9.80
2023-01-13T01:17:52.344Z,10.25
2023-01-13T01:20:20.841Z,9.88
2023-01-13T01:22:49.332Z,11.85
2023-01-13T01:25:19.063Z,11.77
2023-01-13T01:27:47.499Z,10.40
2023-01-13T01:30:16.528Z,8.15
2023-01-13T01:32:44.931Z,8.48
2023-01-13T01:35:13.339Z,5.60
2023-01-13T01:37:41.760Z,5.80
2023-01-13T01:40:10.987Z,11.90
2023-01-13T01:42:58.716Z,7.07
2023-01-13T01:45:30.536Z,8.48
2023-01-13T01:48:01.066Z,5.68
2023-01-13T01:50:30.101Z,8.25
2023-01-13T01:53:00.655Z,7.38
2023-01-13T01:55:30.934Z,6.43
2023-01-13T01:58:03.887Z,8.60
2023-01-13T02:00:32.319Z,10.88
2023-01-13T02:03:01.210Z,4.93
2023-01-13T02:05:29.616Z,7.45
2023-01-13T02:07:59.330Z,6.38
2023-01-13T02:10:28.910Z,5.55
2023-01-13T02:12:57.772Z,5.50
2023-01-13T02:15:32.749Z,7.07
2023-01-13T02:18:21.884Z,12.93
2023-01-13T02:21:04.061Z,9.25
2023-01-13T02:24:01.098Z,6.68
2023-01-13T02:26:44.296Z,6.35
2023-01-13T02:29:34.693Z,6.15
2023-01-13T02:32:06.824Z,10.68
2023-01-13T02:34:40.090Z,6.30
2023-01-13T02:37:09.619Z,6.88
2023-01-13T02:39:40.530Z,6.20
2023-01-13T02:42:28.104Z,7.50
2023-01-13T02:44:59.146Z,15.35
2023-01-13T02:47:29.663Z,5.18
2023-01-13T02:50:00.850Z,5.90
2023-01-13T02:52:31.753Z,8.82
2023-01-13T02:55:02.389Z,11.10
2023-01-13T02:57:32.377Z,8.98
2023-01-13T03:00:00.916Z,5.13
2023-01-13T03:02:30.886Z,8.48
2023-01-13T03:04:59.983Z,6.32
2023-01-13T03:07:43.236Z,9.85
2023-01-13T03:10:13.124Z,8.45
2023-01-13T03:12:45.974Z,9.20
2023-01-13T03:15:18.507Z,13.65
2023-01-13T03:17:51.151Z,7.88
2023-01-13T03:20:23.343Z,6.53
2023-01-13T03:22:54.862Z,10.15
2023-01-13T03:25:25.932Z,8.98
2023-01-13T03:27:56.235Z,8.23
2023-01-13T03:30:26.629Z,12.40
2023-01-13T03:32:59.169Z,7.95
2023-01-13T03:35:29.502Z,5.40
2023-01-13T03:38:00.123Z,12.85
2023-01-13T03:40:30.706Z,12.35
2023-01-13T03:43:19.652Z,8.43
2023-01-13T03:45:49.252Z,9.43
2023-01-13T03:48:21.819Z,6.80
2023-01-13T03:50:51.535Z,8.23
2023-01-13T03:53:21.865Z,5.82
2023-01-13T03:55:52.895Z,5.95
2023-01-13T03:58:23.566Z,6.20
2023-01-13T04:00:54.653Z,6.00
2023-01-13T04:03:26.404Z,5.00
2023-01-13T04:05:58.058Z,3.17
2023-01-13T04:08:27.640Z,6.70
2023-01-13T04:10:58.204Z,10.63
2023-01-13T04:13:28.123Z,5.93
2023-01-13T04:15:56.766Z,6.15
2023-01-13T04:18:27.564Z,7.97
2023-01-13T04:20:57.973Z,8.40
2023-01-13T04:23:28.007Z,5.70
2023-01-13T04:25:57.199Z,6.45
2023-01-13T04:28:25.934Z,3.13
2023-01-13T04:30:54.541Z,5.63
2023-01-13T04:33:23.144Z,6.07
2023-01-13T04:35:53.716Z,8.25
2023-01-13T04:38:22.599Z,10.82
2023-01-13T04:40:51.028Z,2.97
2023-01-13T04:43:19.555Z,5.95
2023-01-13T04:45:47.952Z,11.80
2023-01-13T04:48:16.349Z,2.90
2023-01-13T04:50:44.755Z,5.93
2023-01-13T04:53:14.553Z,6.45
2023-01-13T04:55:44.326Z,4.97
2023-01-13T04:58:12.772Z,8.50
2023-01-13T05:00:41.217Z,5.47
2023-01-13T05:03:09.603Z,3.03
2023-01-13T05:05:38.180Z,7.30
2023-01-13T05:08:06.682Z,8.25
2023-01-13T05:10:36.487Z,4.63
2023-01-13T05:13:22.833Z,5.57
2023-01-13T05:16:11.245Z,5.43
2023-01-13T05:18:39.844Z,5.05
2023-01-13T05:21:28.643Z,4.68
2023-01-13T05:24:14.394Z,3.75
2023-01-13T05:26:44.152Z,5.15
2023-01-13T05:29:12.569Z,3.92
2023-01-13T05:31:40.969Z,7.97
2023-01-13T05:34:09.331Z,3.20
2023-01-13T05:36:37.707Z,8.60
2023-01-13T05:39:06.129Z,8.60
2023-01-13T05:41:51.988Z,9.07
2023-01-13T05:44:21.698Z,7.60
2023-01-13T05:46:50.192Z,5.60
2023-01-13T05:49:18.580Z,5.82
2023-01-13T05:51:46.991Z,6.82
2023-01-13T05:54:15.513Z,5.88
2023-01-13T05:56:43.926Z,6.70
2023-01-13T05:59:12.457Z,5.88
2023-01-13T06:01:42.224Z,5.60
2023-01-13T06:04:10.617Z,7.20
2023-01-13T06:06:39.048Z,5.15
2023-01-13T06:09:07.425Z,5.28
2023-01-13T06:11:35.839Z,7.65
2023-01-13T06:14:04.260Z,8.95
2023-01-13T06:16:32.740Z,10.02
2023-01-13T06:19:02.569Z,9.15
2023-01-13T06:21:33.020Z,8.55
2023-01-13T06:24:01.646Z,8.60
2023-01-13T06:26:30.969Z,7.07
2023-01-13T06:28:59.356Z,9.02
2023-01-13T06:31:28.689Z,7.53
2023-01-13T06:34:00.041Z,14.30
2023-01-13T06:36:33.093Z,6.57
2023-01-13T06:39:03.235Z,7.05
2023-01-13T06:41:50.456Z,10.40
2023-01-13T06:44:19.200Z,13.85
2023-01-13T06:46:47.906Z,8.57
2023-01-13T06:49:16.428Z,15.55
2023-01-13T06:51:46.556Z,10.43
2023-01-13T06:54:14.972Z,9.10
2023-01-13T06:56:43.444Z,6.30
2023-01-13T06:59:11.816Z,11.30
2023-01-13T07:01:40.559Z,12.82
2023-01-13T07:04:09.022Z,14.32
2023-01-13T07:06:37.454Z,16.48
2023-01-13T07:09:07.267Z,11.00
2023-01-13T07:11:35.759Z,7.85
2023-01-13T07:14:21.840Z,10.00
2023-01-13T07:16:50.486Z,13.52
2023-01-13T07:19:23.297Z,11.27
2023-01-13T07:21:52.703Z,12.13
2023-01-13T07:24:23.503Z,13.23
2023-01-13T07:26:52.425Z,11.80
2023-01-13T07:29:20.953Z,10.38
2023-01-13T07:31:50.261Z,15.35
2023-01-13T07:34:18.907Z,13.98
2023-01-13T07:36:47.341Z,11.20
2023-01-13T07:39:15.781Z,16.95
2023-01-13T07:42:03.278Z,15.15
2023-01-13T07:44:31.660Z,15.98
2023-01-13T07:47:00.059Z,15.70
2023-01-13T07:49:28.476Z,14.77
2023-01-13T07:51:56.887Z,14.77
2023-01-13T07:54:39.580Z,14.45
2023-01-13T07:57:10.314Z,9.80
2023-01-13T07:59:38.729Z,17.88
2023-01-13T08:02:07.246Z,7.25
2023-01-13T08:04:35.939Z,7.00
2023-01-13T08:07:04.396Z,18.90
2023-01-13T08:09:32.790Z,17.05
2023-01-13T08:12:15.079Z,15.63
2023-01-13T08:14:45.173Z,12.45
2023-01-13T08:17:13.663Z,10.30
2023-01-13T08:19:42.077Z,11.32
2023-01-13T08:22:10.552Z,15.00
2023-01-13T08:24:38.940Z,8.68
2023-01-13T08:27:07.345Z,13.48
2023-01-13T08:29:35.787Z,8.23
2023-01-13T08:32:05.727Z,12.90
2023-01-13T08:34:34.211Z,11.70
2023-01-13T08:37:02.628Z,7.93
2023-01-13T08:39:31.091Z,16.20
2023-01-13T08:41:59.492Z,7.25
2023-01-13T08:44:28.910Z,10.75
2023-01-13T08:46:57.686Z,7.85
2023-01-13T08:49:27.635Z,14.02
2023-01-13T08:51:56.204Z,14.50
2023-01-13T08:54:24.647Z,11.27
2023-01-13T08:56:53.205Z,19.33
2023-01-13T08:59:21.890Z,14.48
2023-01-13T09:01:50.475Z,12.52
2023-01-13T09:04:19.644Z,12.88
2023-01-13T09:06:49.543Z,9.63
2023-01-13T09:09:18.260Z,16.70
2023-01-13T09:12:05.266Z,12.88
2023-01-13T09:14:34.750Z,8.48
2023-01-13T09:17:03.232Z,10.30
2023-01-13T09:19:31.848Z,6.00
2023-01-13T09:22:01.640Z,13.75
2023-01-13T09:24:30.483Z,11.20
2023-01-13T09:26:58.986Z,15.27
2023-01-13T09:29:27.406Z,10.82
2023-01-13T09:31:57.869Z,20.77
2023-01-13T09:34:44.020Z,14.48
2023-01-13T09:37:13.849Z,12.45
2023-01-13T09:39:42.294Z,11.70
2023-01-13T09:42:34.245Z,13.98
2023-01-13T09:45:06.052Z,15.65
2023-01-13T09:47:36.893Z,12.38
2023-01-13T09:50:10.471Z,17.63
2023-01-13T09:52:40.773Z,16.45
2023-01-13T09:55:13.354Z,9.55
2023-01-13T09:57:41.850Z,10.43
2023-01-13T10:00:13.867Z,9.98
2023-01-13T10:02:51.603Z,13.70
2023-01-13T10:05:24.310Z,13.02
2023-01-13T10:07:54.520Z,17.00
2023-01-13T10:10:38.547Z,16.85
2023-01-13T10:13:15.112Z,10.80
2023-01-13T10:15:46.136Z,13.57
2023-01-13T10:18:18.670Z,14.82
2023-01-13T10:20:52.071Z,10.75
2023-01-13T10:23:34.365Z,16.13
2023-01-13T10:26:06.377Z,15.40
2023-01-13T10:28:34.943Z,12.95
2023-01-13T10:31:05.178Z,14.70
2023-01-13T10:33:33.593Z,11.85
2023-01-13T10:36:02.630Z,15.52
2023-01-13T10:38:37.653Z,15.90
2023-01-13T10:41:07.314Z,10.68
2023-01-13T10:43:35.783Z,13.57
2023-01-13T10:46:06.585Z,11.82
2023-01-13T10:48:36.291Z,13.32
2023-01-13T10:51:20.097Z,15.68
2023-01-13T10:53:52.567Z,17.52
2023-01-13T10:56:21.779Z,16.55
2023-01-13T10:58:50.191Z,14.30
2023-01-13T11:01:22.390Z,16.42
2023-01-13T11:03:50.907Z,18.85
2023-01-13T11:06:23.110Z,30.50
2023-01-13T11:08:55.251Z,12.10
2023-01-13T11:11:28.183Z,11.85
2023-01-13T11:14:16.123Z,12.60
2023-01-13T11:16:52.925Z,12.20
2023-01-13T11:19:24.127Z,9.82
2023-01-13T11:21:54.863Z,17.90
2023-01-13T11:24:29.144Z,15.80
2023-01-13T11:27:00.162Z,10.32
2023-01-13T11:29:30.722Z,12.85
2023-01-13T11:32:03.143Z,11.18
2023-01-13T11:34:33.780Z,15.15
2023-01-13T11:37:03.077Z,13.63
2023-01-13T11:39:43.659Z,14.13
2023-01-13T11:42:24.413Z,15.57
2023-01-13T11:44:56.924Z,9.93
2023-01-13T11:47:26.134Z,15.60
2023-01-13T11:49:54.572Z,10.75
2023-01-13T11:52:23.852Z,11.80
2023-01-13T11:55:02.366Z,13.88
2023-01-13T11:57:39.656Z,13.05
2023-01-13T12:00:28.058Z,14.98
2023-01-13T12:02:59.665Z,9.60
2023-01-13T12:05:32.953Z,12.13
2023-01-13T12:08:06.513Z,10.55
2023-01-13T12:10:46.403Z,14.93
2023-01-13T12:13:20.267Z,15.32
2023-01-13T12:16:07.300Z,3.80
2023-01-13T12:18:44.664Z,10.48
2023-01-13T12:21:19.901Z,10.77
2023-01-13T12:23:50.583Z,8.07
2023-01-13T12:26:20.767Z,7.82
2023-01-13T12:28:51.202Z,15.93
2023-01-13T12:31:20.442Z,17.05
2023-01-13T12:34:06.508Z,9.25
2023-01-13T12:36:42.464Z,6.80
2023-01-13T12:39:16.900Z,11.63
2023-01-13T12:42:07.784Z,11.15
2023-01-13T12:44:36.169Z,6.50
2023-01-13T12:47:04.885Z,12.88
2023-01-13T12:49:34.107Z,11.55
2023-01-13T12:52:13.888Z,10.85
2023-01-13T12:55:00.729Z,9.55
2023-01-13T12:57:31.275Z,9.20
2023-01-13T13:00:16.104Z,15.15
2023-01-13T13:02:45.251Z,10.63
2023-01-13T13:05:32.213Z,12.15
2023-01-13T13:08:06.904Z,8.65
2023-01-13T13:10:36.632Z,9.73
2023-01-13T13:13:19.669Z,11.95
2023-01-13T13:15:48.658Z,4.68
2023-01-13T13:18:28.474Z,8.43
2023-01-13T13:20:58.792Z,8.50
2023-01-13T13:23:48.019Z,11.32
2023-01-13T13:26:23.786Z,9.70
2023-01-13T13:29:03.195Z,9.15
2023-01-13T13:31:37.135Z,10.07
2023-01-13T13:34:10.271Z,8.45
2023-01-13T13:36:54.748Z,15.68
2023-01-13T13:39:41.971Z,9.63
2023-01-13T13:42:32.501Z,12.73
2023-01-13T13:45:21.086Z,6.30
2023-01-13T13:47:49.523Z,4.85
2023-01-13T13:50:20.456Z,13.95
2023-01-13T13:52:54.464Z,9.25
2023-01-13T13:55:24.279Z,9.27
2023-01-13T13:57:53.306Z,10.10
2023-01-13T14:00:25.432Z,10.52
2023-01-13T14:02:55.009Z,8.85
2023-01-13T14:05:24.344Z,9.45
2023-01-13T14:07:57.245Z,10.13
2023-01-13T14:10:27.174Z,10.85
2023-01-13T14:12:55.586Z,6.55
2023-01-13T14:15:31.404Z,7.25
2023-01-13T14:18:00.451Z,9.48
2023-01-13T14:20:29.762Z,8.18
2023-01-13T14:23:01.524Z,11.02
2023-01-13T14:25:31.027Z,10.88
2023-01-13T14:28:00.722Z,9.82
2023-01-13T14:30:30.648Z,12.60
2023-01-13T14:32:59.149Z,4.75
2023-01-13T14:35:27.627Z,11.25
2023-01-13T14:38:04.226Z,5.72
2023-01-13T14:40:46.485Z,13.45
2023-01-13T14:43:16.505Z,14.68
2023-01-13T14:45:57.102Z,8.05
2023-01-13T14:48:30.915Z,9.48
2023-01-13T14:50:59.410Z,11.40
2023-01-13T14:53:32.583Z,10.57
2023-01-13T14:56:01.036Z,5.15
2023-01-13T14:58:30.139Z,9.75
2023-01-13T15:01:17.287Z,9.52
2023-01-13T15:03:50.939Z,11.00
2023-01-13T15:06:26.306Z,7.97
2023-01-13T15:08:55.078Z,9.45
2023-01-13T15:11:26.136Z,10.38
2023-01-13T15:14:02.242Z,11.23
2023-01-13T15:16:33.857Z,6.57
2023-01-13T15:19:04.753Z,11.30
2023-01-13T15:21:33.129Z,8.93
2023-01-13T15:24:01.541Z,6.38
2023-01-13T15:26:30.871Z,8.57
2023-01-13T15:29:00.721Z,14.30
2023-01-13T15:31:29.528Z,6.68
2023-01-13T15:33:58.827Z,9.52
2023-01-13T15:36:31.001Z,8.20
2023-01-13T15:39:00.005Z,6.75
2023-01-13T15:41:46.332Z,7.18
2023-01-13T15:44:33.361Z,11.30
2023-01-13T15:47:03.255Z,11.90
2023-01-13T15:49:35.050Z,8.32
2023-01-13T15:52:05.835Z,14.02
2023-01-13T15:54:34.266Z,9.95
2023-01-13T15:57:02.668Z,10.77
2023-01-13T15:59:31.052Z,10.77
2023-01-13T16:01:59.406Z,9.02
2023-01-13T16:04:27.803Z,12.27
2023-01-13T16:06:56.253Z,8.32
2023-01-13T16:09:26.042Z,10.90
2023-01-13T16:11:54.420Z,10.98
2023-01-13T16:14:22.825Z,7.88
2023-01-13T16:16:51.758Z,10.15
2023-01-13T16:19:20.239Z,11.07
2023-01-13T16:21:48.603Z,10.40
2023-01-13T16:24:17.036Z,7.35
2023-01-13T16:26:46.865Z,18.05
2023-01-13T16:29:15.299Z,14.98
2023-01-13T16:31:43.667Z,8.50
2023-01-13T16:34:12.233Z,8.23
2023-01-13T16:36:40.602Z,10.13
2023-01-13T16:39:20.970Z,10.52
2023-01-13T16:41:50.748Z,9.20
2023-01-13T16:44:19.252Z,11.38
2023-01-13T16:46:47.830Z,10.68
2023-01-13T16:49:17.418Z,12.52
2023-01-13T16:51:45.828Z,9.82
2023-01-13T16:54:14.385Z,10.13
2023-01-13T16:56:42.857Z,12.20
2023-01-13T16:59:14.592Z,11.40
2023-01-13T17:01:44.697Z,11.05
2023-01-13T17:04:16.639Z,10.15
2023-01-13T17:06:46.411Z,13.43
2023-01-13T17:09:17.357Z,13.93
2023-01-13T17:11:45.803Z,15.13
2023-01-13T17:14:19.355Z,9.10
2023-01-13T17:16:48.279Z,14.73
2023-01-13T17:19:18.677Z,16.83
2023-01-13T17:21:54.032Z,16.17
2023-01-13T17:24:26.595Z,14.25
2023-01-13T17:26:55.126Z,14.43
2023-01-13T17:29:27.829Z,25.98
2023-01-13T17:31:57.983Z,12.82
2023-01-13T17:34:26.598Z,19.15
2023-01-13T17:36:55.505Z,12.80
2023-01-13T17:39:25.123Z,14.88
2023-01-13T17:41:56.487Z,21.80
2023-01-13T17:44:26.777Z,11.43
2023-01-13T17:46:55.490Z,12.35
2023-01-13T17:49:24.106Z,17.90
2023-01-13T17:51:53.722Z,20.38
2023-01-13T17:54:23.553Z,14.13
2023-01-13T17:56:53.854Z,18.98
2023-01-13T17:59:24.231Z,11.75
2023-01-13T18:01:54.589Z,13.02
2023-01-13T18:04:24.625Z,13.38
2023-01-13T18:06:53.457Z,20.20
2023-01-13T18:09:23.457Z,11.25
2023-01-13T18:11:52.928Z,11.35
2023-01-13T18:14:22.546Z,13.45
2023-01-13T18:16:51.586Z,13.90
2023-01-13T18:19:39.069Z,17.23
2023-01-13T18:22:25.245Z,14.98
2023-01-13T18:25:11.423Z,17.92
2023-01-13T18:27:41.433Z,14.88
2023-01-13T18:30:10.820Z,18.08
2023-01-13T18:32:39.907Z,23.15
2023-01-13T18:35:11.431Z,15.48
2023-01-13T18:37:42.369Z,19.33
2023-01-13T18:40:13.831Z,20.85
2023-01-13T18:42:55.023Z,16.73
2023-01-13T18:45:25.677Z,11.23
2023-01-13T18:47:54.811Z,20.02
2023-01-13T18:50:27.050Z,24.05
2023-01-13T18:52:55.746Z,24.20
2023-01-13T18:55:25.951Z,14.73
2023-01-13T18:57:56.010Z,15.05
2023-01-13T19:00:27.834Z,16.98
2023-01-13T19:05:39.765Z,21.77
2023-01-13T19:08:17.297Z,19.15
2023-01-13T19:10:46.629Z,17.17
2023-01-13T19:13:21.047Z,16.98
2023-01-13T19:15:49.839Z,25.70
2023-01-13T19:18:21.383Z,22.23
2023-01-13T19:20:51.498Z,17.92
2023-01-13T19:23:20.014Z,24.88
2023-01-13T19:25:48.491Z,18.75
2023-01-13T19:28:17.341Z,24.75
2023-01-13T19:30:45.946Z,16.65
2023-01-13T19:33:14.551Z,17.33
2023-01-13T19:35:43.086Z,19.42
2023-01-13T19:38:12.945Z,17.77
2023-01-13T19:40:41.443Z,23.35
2023-01-13T19:43:28.641Z,17.30
2023-01-13T19:45:57.221Z,23.48
2023-01-13T19:48:26.174Z,27.42
2023-01-13T19:50:54.656Z,22.63
2023-01-13T19:53:24.627Z,21.08
2023-01-13T19:55:53.103Z,22.95
2023-01-13T19:58:23.948Z,23.38
2023-01-13T20:00:52.925Z,28.08
2023-01-13T20:03:23.713Z,17.90
2023-01-13T20:05:52.426Z,18.10
2023-01-13T20:08:21.323Z,19.30
2023-01-13T20:11:11.460Z,17.88
2023-01-13T20:13:40.898Z,27.83
2023-01-13T20:16:12.737Z,18.08
2023-01-13T20:18:41.331Z,21.77
2023-01-13T20:21:10.122Z,26.38
2023-01-13T20:23:38.590Z,20.35
2023-01-13T20:26:10.079Z,19.05
2023-01-13T20:28:39.758Z,22.33
2023-01-13T20:31:09.749Z,23.65
2023-01-13T20:33:38.956Z,27.15
2023-01-13T20:36:09.538Z,20.35
2023-01-13T20:38:38.974Z,24.08
2023-01-13T20:41:22.244Z,18.40
2023-01-13T20:43:52.496Z,22.55
2023-01-13T20:46:23.517Z,25.67
2023-01-13T20:48:52.810Z,19.73
2023-01-13T20:51:25.212Z,18.48
2023-01-13T20:53:54.010Z,23.27
2023-01-13T20:56:23.142Z,21.40
2023-01-13T20:58:53.831Z,19.45
2023-01-13T21:01:23.042Z,20.60
2023-01-13T21:03:56.205Z,19.08
2023-01-13T21:06:26.530Z,16.20
2023-01-13T21:08:55.584Z,18.98
2023-01-13T21:11:38.761Z,18.55
2023-01-13T21:14:28.765Z,19.75
2023-01-13T21:17:01.772Z,18.52
2023-01-13T21:19:30.781Z,17.02
2023-01-13T21:22:02.288Z,18.80
2023-01-13T21:24:30.850Z,21.90
2023-01-13T21:27:00.520Z,15.73
2023-01-13T21:29:32.288Z,24.30
2023-01-13T21:32:01.223Z,23.67
2023-01-13T21:34:30.217Z,20.15
2023-01-13T21:37:01.341Z,21.60
2023-01-13T21:39:30.899Z,16.30
2023-01-13T21:42:16.838Z,21.75
2023-01-13T21:45:05.531Z,18.95
2023-01-13T21:47:50.545Z,17.08
2023-01-13T21:50:20.119Z,23.83
2023-01-13T21:52:52.902Z,24.73
2023-01-13T21:55:24.995Z,18.95
2023-01-13T21:57:55.400Z,19.83
2023-01-13T22:00:26.836Z,20.55
2023-01-13T22:02:55.499Z,23.42
2023-01-13T22:05:25.056Z,22.17
2023-01-13T22:07:54.787Z,24.83
2023-01-13T22:10:24.642Z,15.55
2023-01-13T22:12:55.223Z,22.83
2023-01-13T22:15:28.045Z,26.88
2023-01-13T22:17:58.288Z,22.13
2023-01-13T22:20:27.520Z,24.05
2023-01-13T22:22:56.180Z,20.65
2023-01-13T22:25:27.520Z,21.83
2023-01-13T22:28:06.068Z,17.95
2023-01-13T22:30:36.103Z,17.13
2023-01-13T22:33:05.292Z,18.10
2023-01-13T22:35:34.893Z,18.90
2023-01-13T22:38:04.768Z,19.45
2023-01-13T22:40:33.437Z,19.65
2023-01-13T22:43:01.990Z,27.33
2023-01-13T22:45:30.816Z,23.35
2023-01-13T22:48:04.915Z,24.25
2023-01-13T22:50:34.099Z,12.68
2023-01-13T22:53:02.713Z,18.70
2023-01-13T22:55:31.324Z,21.77
2023-01-13T22:58:02.886Z,19.77
2023-01-13T23:00:31.342Z,21.02
2023-01-13T23:02:59.844Z,23.42
2023-01-13T23:05:33.024Z,19.30
2023-01-13T23:08:09.494Z,19.17
2023-01-13T23:10:48.567Z,18.50
2023-01-13T23:13:25.674Z,26.40
2023-01-13T23:16:09.593Z,19.67
2023-01-13T23:18:50.515Z,26.63
2023-01-13T23:21:29.062Z,17.15
2023-01-13T23:24:04.978Z,20.45
2023-01-13T23:26:53.842Z,22.63
2023-01-13T23:29:30.134Z,20.85
2023-01-13T23:32:29.022Z,22.50
2023-01-13T23:35:09.896Z,30.48
2023-01-13T23:37:53.302Z,19.95
2023-01-13T23:40:27.722Z,20.48
2023-01-13T23:43:15.356Z,16.45
2023-01-13T23:46:04.913Z,16.52
2023-01-13T23:48:59.952Z,15.40
2023-01-13T23:51:34.100Z,20.27
2023-01-13T23:57:15.977Z,17.95
